SBBR/BSB METAR and TAF weather

Enter ICAO airport designator
Station Type Date Time Source
SBBR METAR 2019/08/20 09:00 UTC NOAA

SBBR 200900Z 05001KT CAVOK 18/12 Q1021


Station Type Date Time Source
SBBR Decoded METAR 2019/08/20 09:00 UTC NOAA

Brasilia Aeroporto , Brazil (SBBR) 15-52S 047-56W 1061M
Aug 20, 2019 - 05:00 AM EDT / 2019.08.20 0900 UTC
Wind: from the NE (050 degrees) at 1 MPH (1 KT):0
Visibility: greater than 7 mile(s):0
Temperature: 64 F (18 C)
Dew Point: 53 F (12 C)
Relative Humidity: 67%
Pressure (altimeter): 30.15 in. Hg (1021 hPa)
ob: SBBR 200900Z 05001KT CAVOK 18/12 Q1021
cycle: 9

Station Type Date Time Source
SBBR TAF 2019/08/20 06:49 UTC NOAA

TAF SBBR 200400Z 2006/2106 08006KT CAVOK TN18/2007Z TX29/2017Z
BECMG 2012/2014 04008KT PROB40
TEMPO 2015/2019 16005KT 9999 SCT040
BECMG 2020/2022 09005KT
RMK PAZ

Example: see airport list